KCCO

Details ICAO KCCO (CCO)
Name NEWNAN COWETA CO
Region United States
Timezone America/New_York (UTC-4.0)
Plans Departing 13
Arriving 16
Stats Elevation 970 ft / 296 m (AMSL)
Location 33.311564° -84.769754°
Runways 1
Magnetic Variation 4.853° W
Sunrise 2018-05-25 10:34:41 UTC / 2018-05-25 06:34:41 Local
Sunset 2018-05-26 00:40:17 UTC / 2018-05-25 20:40:17 Local
Advertisement - Login to hide

Runways

ID Width Length Bearing (true) Bearing (mag) Surface Threshold Offset Overrun Length
14 100 ft / 30 m 5,500 ft / 1,676 m 139.63° 144.48° Asphalt 0 ft / 0 m 0 ft / 0 m
32 100 ft / 30 m 5,500 ft / 1,676 m 319.64° 324.49° Asphalt 0 ft / 0 m 0 ft / 0 m

Approach Navaids

Runway Type Ident Frequency Range Bearing (true) Bearing (mag) Slope Elevation
32 Localiser ICCO 110.75 MHz 18 nm / 33 km 319.64° 324.49° - 970 ft / 296 m (AMSL)

Map

Weather


0- 5 10 15 20 25 30 35+ Temperature / ° C

Clouds and Precipitation
Forecast for 2018-05-26 00:00 UTC. Updated 3 hours ago

Ground ~20,000 ft ~40,000 ft Winds

METAR

KCCO 260235Z AUTO 13004KT 10SM SCT060 SCT090 BKN110 23/21 A3001 RMK AO2 LTG DSNT N AND SW T02310207

TAF

Not found

Frequencies

Recorded 118.97 MHz AWOS 3
Clearance 119.80 MHz CLNC DEL
Unicom 122.80 MHz CTAF/UNICOM
Approach 119.80 MHz ATLANTA APP/DEP
Warning: Do not use this data for real-world aviation or navigation. No guarantee of current accuracy is given.